»·PEaware :: NWA7221 KTUS-KSAN

NWA7221 :: KTUS-KSAN

FLIGHT INFORMATION

Flight Status: Arrived
Operator:
Northwest Airlines
More flights by this operator :: More flights under this callsign
Pilot: Jonathan P. (42949)
Aircraft: AIRBUS A319
(A319)
More flights by this aircraft type
Origin: KTUS Tucson Intl
United States
Destination: KSAN San Diego Intl-Lindbergh
United States
More flights between these airports :: More routes between these airports
Route: BURRO4 GBN J2 HOGGZ LUCKI1
File this flight plan on PilotEdge
Remarks: RMK / SIMBRIEF
Altitude:
(Current/Filed)
36,000ft
Speed:
(Current/Filed)
448kts
Departed: 09-Jun-23 09:11 PM
Arrived: 09-Jun-23 10:08 PM
Distance/Time
Traveled:
318nm/0:57
Distance/Time
To Go:
Arrived

Flight Plot

Page will automatically refresh every two minutes.

Flight plan parsing failed; only flown route is shown


Map Options




Map Legend


Flown Route
Filed Route
Departure Airport
Arrival Airport
Navaid (VOR, NDB)
Fix

Horizontal Profiles

Position Reports

Time Latitude Longitude Heading Altitude Ground
Speed
09-Jun-23 20:56 32.118647 -110.937196 41 2605ft 0kts
09-Jun-23 20:57 32.118647 -110.937196 41 2605ft 0kts
09-Jun-23 20:58 32.118647 -110.937196 41 2605ft 0kts
09-Jun-23 20:59 32.118647 -110.937196 41 2605ft 0kts
09-Jun-23 21:00 32.118647 -110.937196 41 2605ft 0kts
09-Jun-23 21:01 32.118647 -110.937196 41 2605ft 0kts
09-Jun-23 21:02 32.118647 -110.937196 41 2605ft 0kts
09-Jun-23 21:03 32.118510 -110.937447 81 2605ft 2kts
09-Jun-23 21:04 32.118652 -110.937860 138 2604ft 0kts
09-Jun-23 21:05 32.118652 -110.937859 138 2604ft 0kts
09-Jun-23 21:06 32.118029 -110.937760 199 2605ft 0kts
09-Jun-23 21:07 32.120843 -110.942405 316 2594ft 24kts
09-Jun-23 21:08 32.124024 -110.946808 231 2579ft 0kts
09-Jun-23 21:09 32.122990 -110.947253 151 2580ft 24kts
09-Jun-23 21:10 32.097752 -110.916883 133 3261ft 187kts
09-Jun-23 21:11 32.051389 -110.870972 168 4998ft 259kts
09-Jun-23 21:12 31.990336 -110.914680 227 7809ft 286kts
09-Jun-23 21:13 31.981477 -110.999622 298 10824ft 311kts
09-Jun-23 21:14 32.030779 -111.097713 299 12140ft 383kts
09-Jun-23 21:15 32.091736 -111.211571 307 13532ft 431kts
09-Jun-23 21:16 32.173126 -111.319140 310 15710ft 447kts
09-Jun-23 21:17 32.257858 -111.430003 308 17739ft 460kts
09-Jun-23 21:18 32.333839 -111.552646 299 19701ft 467kts
09-Jun-23 21:19 32.406201 -111.681745 298 21474ft 475kts
09-Jun-23 21:20 32.479651 -111.813116 297 22995ft 483kts
09-Jun-23 21:21 32.553791 -111.945679 297 24834ft 477kts
09-Jun-23 21:22 32.626093 -112.075413 296 26950ft 466kts
09-Jun-23 21:23 32.696501 -112.202239 295 29119ft 453kts
09-Jun-23 21:24 32.764533 -112.325215 294 31221ft 439kts
09-Jun-23 21:25 32.830367 -112.444634 293 33199ft 424kts
09-Jun-23 21:26 32.894057 -112.560656 293 34707ft 417kts
09-Jun-23 21:27 32.937881 -112.684153 272 35594ft 397kts
09-Jun-23 21:28 32.937121 -112.812247 256 35925ft 384kts
09-Jun-23 21:29 32.920432 -112.938358 255 35927ft 388kts
09-Jun-23 21:30 32.903067 -113.066219 255 35928ft 393kts
09-Jun-23 21:31 32.885421 -113.194844 255 35928ft 394kts
09-Jun-23 21:32 32.867676 -113.323176 255 35929ft 393kts
09-Jun-23 21:33 32.849796 -113.451496 255 35928ft 393kts
09-Jun-23 21:34 32.831770 -113.579994 255 35927ft 393kts
09-Jun-23 21:35 32.813715 -113.707863 255 35913ft 393kts
09-Jun-23 21:36 32.795397 -113.836273 255 35896ft 393kts
09-Jun-23 21:37 32.778362 -113.964899 258 35893ft 395kts
09-Jun-23 21:38 32.776004 -114.093643 265 35892ft 401kts
09-Jun-23 21:39 32.781206 -114.227121 266 35893ft 402kts
09-Jun-23 21:40 32.789266 -114.360057 271 35893ft 407kts
09-Jun-23 21:41 32.816495 -114.491817 279 35892ft 416kts
09-Jun-23 21:42 32.852508 -114.623397 278 35892ft 416kts
09-Jun-23 21:43 32.874169 -114.755728 268 35891ft 403kts
09-Jun-23 21:44 32.875445 -114.888196 262 35888ft 399kts
09-Jun-23 21:45 32.872597 -115.020107 262 35883ft 400kts
09-Jun-23 21:46 32.869502 -115.153341 261 35457ft 399kts
09-Jun-23 21:47 32.866088 -115.288973 261 31526ft 425kts
09-Jun-23 21:48 32.852181 -115.430752 254 27337ft 439kts
09-Jun-23 21:49 32.830171 -115.575281 253 23192ft 454kts
09-Jun-23 21:50 32.806162 -115.721151 254 20024ft 444kts
09-Jun-23 21:51 32.784304 -115.862167 259 18704ft 430kts
09-Jun-23 21:52 32.773602 -116.002192 261 16489ft 419kts
09-Jun-23 21:53 32.763341 -116.138631 262 14495ft 409kts
09-Jun-23 21:54 32.753201 -116.270704 263 12672ft 390kts
09-Jun-23 21:55 32.744401 -116.384791 263 11094ft 361kts
09-Jun-23 21:56 32.735495 -116.497915 264 10035ft 319kts
09-Jun-23 21:57 32.725834 -116.598777 263 8764ft 301kts
09-Jun-23 21:58 32.716966 -116.695836 265 7183ft 297kts
09-Jun-23 21:59 32.709780 -116.789179 265 6102ft 274kts
09-Jun-23 22:00 32.691235 -116.871087 249 5332ft 249kts
09-Jun-23 22:01 32.673794 -116.946808 283 4421ft 231kts
09-Jun-23 22:02 32.691331 -117.016546 289 3382ft 204kts
09-Jun-23 22:03 32.705392 -117.073823 289 2301ft 155kts
09-Jun-23 22:04 32.716159 -117.117883 286 1357ft 131kts
09-Jun-23 22:05 32.726193 -117.159393 287 513ft 129kts
09-Jun-23 22:06 32.734378 -117.193121 280 26ft 42kts
09-Jun-23 22:07 32.733481 -117.193914 107 25ft 6kts
09-Jun-23 22:08 32.732739 -117.190414 106 26ft 15kts
09-Jun-23 22:09 32.731537 -117.185253 103 25ft 17kts
09-Jun-23 22:10 32.729641 -117.179862 143 26ft 18kts

Navigation Log

Ident Type
Flight plan parsing failed, navigation log unavailable